Terminal Aerodrome Forecast
Issued by NWS Cleveland, OH

Home | Current Version | Previous Version | Text Only | Print | Product List | Glossary On
Versions: 1 2 3 4 5 6 7 8 9 10 11 12 13 14 15 16
000
FTUS41 KCLE 240848 AAA
TAFCAK
TAF AMD
KCAK 240848Z 2409/2506 VRB04KT P6SM SCT008 OVC012
      TEMPO 2409/2412 BKN008
     FM241200 VRB03KT 5SM -RA OVC006
     FM242100 08010KT P6SM SCT006 OVC015
     FM242300 11010KT 6SM -RA SCT003 OVC012
     FM250200 12009KT 3SM -RA BR OVC003=

USA.gov is the U.S. government's official web portal to all federal, state and local government web resources and services.